sensor_id;sensor_type;location;lat;lon;timestamp;P1;durP1;ratioP1;P2;durP2;ratioP2
51810;SDS011;52468;40.116;18.296;2023-02-18T00:01:34;162.73;;;94.70;;
51810;SDS011;52468;40.116;18.296;2023-02-18T00:04:02;168.90;;;95.73;;
51810;SDS011;52468;40.116;18.296;2023-02-18T00:06:33;167.97;;;103.57;;
51810;SDS011;52468;40.116;18.296;2023-02-18T00:09:02;163.60;;;95.93;;
51810;SDS011;52468;40.116;18.296;2023-02-18T00:11:32;156.53;;;89.87;;
51810;SDS011;52468;40.116;18.296;2023-02-18T00:14:02;155.57;;;95.70;;
51810;SDS011;52468;40.116;18.296;2023-02-18T00:16:32;156.43;;;89.60;;
51810;SDS011;52468;40.116;18.296;2023-02-18T00:19:00;159.73;;;97.27;;
51810;SDS011;52468;40.116;18.296;2023-02-18T00:21:31;163.00;;;96.03;;
51810;SDS011;52468;40.116;18.296;2023-02-18T00:24:01;167.30;;;98.33;;
51810;SDS011;52468;40.116;18.296;2023-02-18T00:26:30;173.63;;;93.20;;
51810;SDS011;52468;40.116;18.296;2023-02-18T00:28:58;153.67;;;90.67;;
51810;SDS011;52468;40.116;18.296;2023-02-18T00:31:28;177.80;;;94.67;;
51810;SDS011;52468;40.116;18.296;2023-02-18T00:34:00;162.20;;;94.78;;
51810;SDS011;52468;40.116;18.296;2023-02-18T00:36:29;166.77;;;92.23;;
51810;SDS011;52468;40.116;18.296;2023-02-18T00:38:59;153.37;;;90.20;;
51810;SDS011;52468;40.116;18.296;2023-02-18T00:41:30;155.50;;;94.37;;
51810;SDS011;52468;40.116;18.296;2023-02-18T00:43:58;155.13;;;86.80;;
51810;SDS011;52468;40.116;18.296;2023-02-18T00:46:26;146.37;;;85.47;;
51810;SDS011;52468;40.116;18.296;2023-02-18T00:48:54;142.37;;;82.27;;
51810;SDS011;52468;40.116;18.296;2023-02-18T00:51:22;146.97;;;82.13;;
51810;SDS011;52468;40.116;18.296;2023-02-18T00:53:51;142.80;;;75.93;;
51810;SDS011;52468;40.116;18.296;2023-02-18T00:56:20;142.37;;;82.80;;
51810;SDS011;52468;40.116;18.296;2023-02-18T00:58:48;127.17;;;79.33;;
51810;SDS011;52468;40.116;18.296;2023-02-18T01:01:16;131.90;;;75.63;;
51810;SDS011;52468;40.116;18.296;2023-02-18T01:03:45;153.10;;;79.47;;
51810;SDS011;52468;40.116;18.296;2023-02-18T01:06:13;150.27;;;83.40;;
51810;SDS011;52468;40.116;18.296;2023-02-18T01:08:42;156.83;;;79.20;;
51810;SDS011;52468;40.116;18.296;2023-02-18T01:11:10;158.83;;;84.17;;
51810;SDS011;52468;40.116;18.296;2023-02-18T01:13:39;150.83;;;82.57;;
51810;SDS011;52468;40.116;18.296;2023-02-18T01:16:08;140.70;;;79.47;;
51810;SDS011;52468;40.116;18.296;2023-02-18T01:18:37;144.93;;;80.07;;
51810;SDS011;52468;40.116;18.296;2023-02-18T01:21:06;132.33;;;79.90;;
51810;SDS011;52468;40.116;18.296;2023-02-18T01:23:36;154.57;;;81.27;;
51810;SDS011;52468;40.116;18.296;2023-02-18T01:26:06;147.73;;;79.67;;
51810;SDS011;52468;40.116;18.296;2023-02-18T01:28:37;144.27;;;78.53;;
51810;SDS011;52468;40.116;18.296;2023-02-18T01:31:07;144.53;;;78.60;;
51810;SDS011;52468;40.116;18.296;2023-02-18T01:33:37;144.33;;;74.67;;
51810;SDS011;52468;40.116;18.296;2023-02-18T01:36:06;135.93;;;71.90;;
51810;SDS011;52468;40.116;18.296;2023-02-18T01:38:35;119.60;;;69.90;;
51810;SDS011;52468;40.116;18.296;2023-02-18T01:41:03;111.00;;;63.70;;
51810;SDS011;52468;40.116;18.296;2023-02-18T01:43:32;114.33;;;62.57;;
51810;SDS011;52468;40.116;18.296;2023-02-18T01:46:18;121.60;;;64.93;;
51810;SDS011;52468;40.116;18.296;2023-02-18T01:48:54;108.33;;;61.37;;
51810;SDS011;52468;40.116;18.296;2023-02-18T01:51:29;118.03;;;59.47;;
51810;SDS011;52468;40.116;18.296;2023-02-18T01:56:59;118.93;;;64.53;;
51810;SDS011;52468;40.116;18.296;2023-02-18T01:59:53;120.27;;;66.57;;
51810;SDS011;52468;40.116;18.296;2023-02-18T02:02:25;114.27;;;66.47;;
51810;SDS011;52468;40.116;18.296;2023-02-18T02:04:54;118.97;;;68.17;;
51810;SDS011;52468;40.116;18.296;2023-02-18T02:07:23;120.50;;;65.40;;
51810;SDS011;52468;40.116;18.296;2023-02-18T02:09:54;130.87;;;66.77;;
51810;SDS011;52468;40.116;18.296;2023-02-18T02:15:05;130.00;;;68.20;;
51810;SDS011;52468;40.116;18.296;2023-02-18T02:17:44;117.27;;;64.17;;
51810;SDS011;52468;40.116;18.296;2023-02-18T02:37:34;110.20;;;57.00;;
51810;SDS011;52468;40.116;18.296;2023-02-18T02:40:28;99.87;;;55.87;;
51810;SDS011;52468;40.116;18.296;2023-02-18T02:43:20;91.20;;;53.35;;
51810;SDS011;52468;40.116;18.296;2023-02-18T02:46:04;98.10;;;51.65;;
51810;SDS011;52468;40.116;18.296;2023-02-18T02:53:42;86.50;;;52.23;;
51810;SDS011;52468;40.116;18.296;2023-02-18T02:56:16;93.77;;;51.43;;
51810;SDS011;52468;40.116;18.296;2023-02-18T02:58:48;94.80;;;51.47;;
51810;SDS011;52468;40.116;18.296;2023-02-18T03:07:26;100.77;;;54.73;;
51810;SDS011;52468;40.116;18.296;2023-02-18T03:21:24;98.97;;;52.63;;
51810;SDS011;52468;40.116;18.296;2023-02-18T03:24:06;103.37;;;56.93;;
51810;SDS011;52468;40.116;18.296;2023-02-18T03:26:46;95.80;;;53.27;;
51810;SDS011;52468;40.116;18.296;2023-02-18T03:29:18;107.93;;;55.97;;
51810;SDS011;52468;40.116;18.296;2023-02-18T03:31:51;100.83;;;57.07;;
51810;SDS011;52468;40.116;18.296;2023-02-18T03:34:25;98.03;;;51.87;;
51810;SDS011;52468;40.116;18.296;2023-02-18T03:36:57;111.33;;;51.43;;
51810;SDS011;52468;40.116;18.296;2023-02-18T03:39:28;97.40;;;52.27;;
51810;SDS011;52468;40.116;18.296;2023-02-18T03:41:58;102.03;;;53.37;;
51810;SDS011;52468;40.116;18.296;2023-02-18T03:44:26;104.13;;;54.97;;
51810;SDS011;52468;40.116;18.296;2023-02-18T03:46:54;90.60;;;51.57;;
51810;SDS011;52468;40.116;18.296;2023-02-18T03:49:22;108.63;;;54.63;;
51810;SDS011;52468;40.116;18.296;2023-02-18T03:51:51;108.23;;;55.67;;
51810;SDS011;52468;40.116;18.296;2023-02-18T03:54:19;100.33;;;53.57;;
51810;SDS011;52468;40.116;18.296;2023-02-18T03:56:47;107.40;;;55.60;;
51810;SDS011;52468;40.116;18.296;2023-02-18T03:59:15;93.17;;;52.40;;
51810;SDS011;52468;40.116;18.296;2023-02-18T04:01:42;97.87;;;54.60;;
51810;SDS011;52468;40.116;18.296;2023-02-18T04:04:10;107.23;;;52.77;;
51810;SDS011;52468;40.116;18.296;2023-02-18T04:06:38;113.70;;;57.57;;
51810;SDS011;52468;40.116;18.296;2023-02-18T04:09:06;123.87;;;54.33;;
51810;SDS011;52468;40.116;18.296;2023-02-18T04:11:36;115.43;;;56.03;;
51810;SDS011;52468;40.116;18.296;2023-02-18T04:14:06;101.97;;;52.93;;
51810;SDS011;52468;40.116;18.296;2023-02-18T04:16:34;122.87;;;54.27;;
51810;SDS011;52468;40.116;18.296;2023-02-18T04:19:02;163.53;;;57.67;;
51810;SDS011;52468;40.116;18.296;2023-02-18T04:21:30;157.23;;;57.67;;
51810;SDS011;52468;40.116;18.296;2023-02-18T04:23:59;119.17;;;52.90;;
51810;SDS011;52468;40.116;18.296;2023-02-18T04:26:27;120.70;;;54.27;;
51810;SDS011;52468;40.116;18.296;2023-02-18T04:28:55;110.83;;;54.53;;
51810;SDS011;52468;40.116;18.296;2023-02-18T04:31:23;107.80;;;52.47;;
51810;SDS011;52468;40.116;18.296;2023-02-18T04:33:51;116.90;;;52.57;;
51810;SDS011;52468;40.116;18.296;2023-02-18T04:36:18;113.07;;;50.83;;
51810;SDS011;52468;40.116;18.296;2023-02-18T04:38:46;100.03;;;51.73;;
51810;SDS011;52468;40.116;18.296;2023-02-18T04:41:14;113.43;;;49.93;;
51810;SDS011;52468;40.116;18.296;2023-02-18T04:43:42;91.63;;;49.23;;
51810;SDS011;52468;40.116;18.296;2023-02-18T04:46:10;105.00;;;51.23;;
51810;SDS011;52468;40.116;18.296;2023-02-18T04:48:38;95.47;;;48.37;;
51810;SDS011;52468;40.116;18.296;2023-02-18T04:51:06;106.80;;;51.03;;
51810;SDS011;52468;40.116;18.296;2023-02-18T04:53:34;92.03;;;48.20;;
51810;SDS011;52468;40.116;18.296;2023-02-18T04:56:02;102.33;;;51.37;;
51810;SDS011;52468;40.116;18.296;2023-02-18T04:58:30;97.43;;;47.63;;
51810;SDS011;52468;40.116;18.296;2023-02-18T05:00:59;94.87;;;45.93;;
51810;SDS011;52468;40.116;18.296;2023-02-18T05:03:28;112.10;;;47.60;;
51810;SDS011;52468;40.116;18.296;2023-02-18T05:05:57;101.27;;;45.23;;
51810;SDS011;52468;40.116;18.296;2023-02-18T05:08:25;87.70;;;46.77;;
51810;SDS011;52468;40.116;18.296;2023-02-18T05:10:52;91.90;;;41.23;;
51810;SDS011;52468;40.116;18.296;2023-02-18T05:13:20;72.97;;;37.23;;
51810;SDS011;52468;40.116;18.296;2023-02-18T05:15:49;84.87;;;39.73;;
51810;SDS011;52468;40.116;18.296;2023-02-18T05:18:17;81.27;;;40.13;;
51810;SDS011;52468;40.116;18.296;2023-02-18T05:20:45;80.10;;;39.57;;
51810;SDS011;52468;40.116;18.296;2023-02-18T05:23:12;85.80;;;39.63;;
51810;SDS011;52468;40.116;18.296;2023-02-18T05:25:40;79.53;;;39.73;;
51810;SDS011;52468;40.116;18.296;2023-02-18T05:28:08;102.17;;;41.17;;
51810;SDS011;52468;40.116;18.296;2023-02-18T05:30:36;79.27;;;40.67;;
51810;SDS011;52468;40.116;18.296;2023-02-18T05:33:04;103.53;;;38.13;;
51810;SDS011;52468;40.116;18.296;2023-02-18T05:35:32;88.77;;;39.03;;
51810;SDS011;52468;40.116;18.296;2023-02-18T05:38:00;106.33;;;40.67;;
51810;SDS011;52468;40.116;18.296;2023-02-18T05:40:28;117.63;;;42.93;;
51810;SDS011;52468;40.116;18.296;2023-02-18T05:42:55;79.67;;;35.87;;
51810;SDS011;52468;40.116;18.296;2023-02-18T05:45:23;85.17;;;40.93;;
51810;SDS011;52468;40.116;18.296;2023-02-18T05:47:51;82.90;;;38.17;;
51810;SDS011;52468;40.116;18.296;2023-02-18T05:50:19;96.33;;;42.03;;
51810;SDS011;52468;40.116;18.296;2023-02-18T05:52:47;98.40;;;41.43;;
51810;SDS011;52468;40.116;18.296;2023-02-18T05:55:15;114.30;;;42.40;;
51810;SDS011;52468;40.116;18.296;2023-02-18T05:57:43;136.90;;;44.30;;
51810;SDS011;52468;40.116;18.296;2023-02-18T06:00:11;85.17;;;37.00;;
51810;SDS011;52468;40.116;18.296;2023-02-18T06:02:39;121.90;;;42.87;;
51810;SDS011;52468;40.116;18.296;2023-02-18T06:05:07;92.47;;;41.10;;
51810;SDS011;52468;40.116;18.296;2023-02-18T06:07:35;74.80;;;38.50;;
51810;SDS011;52468;40.116;18.296;2023-02-18T06:10:04;72.13;;;39.73;;
51810;SDS011;52468;40.116;18.296;2023-02-18T06:12:32;82.17;;;43.60;;
51810;SDS011;52468;40.116;18.296;2023-02-18T06:15:00;91.47;;;45.23;;
51810;SDS011;52468;40.116;18.296;2023-02-18T06:17:28;93.40;;;44.27;;
51810;SDS011;52468;40.116;18.296;2023-02-18T06:19:55;102.13;;;46.97;;
51810;SDS011;52468;40.116;18.296;2023-02-18T06:22:23;102.60;;;47.93;;
51810;SDS011;52468;40.116;18.296;2023-02-18T06:24:51;95.17;;;46.97;;
51810;SDS011;52468;40.116;18.296;2023-02-18T06:27:19;93.23;;;46.57;;
51810;SDS011;52468;40.116;18.296;2023-02-18T06:29:47;101.23;;;51.30;;
51810;SDS011;52468;40.116;18.296;2023-02-18T06:32:15;97.93;;;49.03;;
51810;SDS011;52468;40.116;18.296;2023-02-18T06:34:43;97.93;;;48.40;;
51810;SDS011;52468;40.116;18.296;2023-02-18T06:37:11;102.77;;;51.97;;
51810;SDS011;52468;40.116;18.296;2023-02-18T06:39:39;113.23;;;49.03;;
51810;SDS011;52468;40.116;18.296;2023-02-18T06:42:07;94.13;;;49.80;;
51810;SDS011;52468;40.116;18.296;2023-02-18T06:44:35;97.00;;;48.23;;
51810;SDS011;52468;40.116;18.296;2023-02-18T06:47:04;100.13;;;53.87;;
51810;SDS011;52468;40.116;18.296;2023-02-18T06:49:31;104.27;;;51.83;;
51810;SDS011;52468;40.116;18.296;2023-02-18T06:51:59;116.20;;;55.93;;
51810;SDS011;52468;40.116;18.296;2023-02-18T06:54:27;111.13;;;55.33;;
51810;SDS011;52468;40.116;18.296;2023-02-18T06:56:55;124.43;;;58.47;;
51810;SDS011;52468;40.116;18.296;2023-02-18T06:59:23;116.60;;;60.93;;
51810;SDS011;52468;40.116;18.296;2023-02-18T07:01:51;127.43;;;62.47;;
51810;SDS011;52468;40.116;18.296;2023-02-18T07:04:19;126.20;;;60.63;;
51810;SDS011;52468;40.116;18.296;2023-02-18T07:06:47;122.70;;;60.90;;
51810;SDS011;52468;40.116;18.296;2023-02-18T07:09:15;118.40;;;62.50;;
51810;SDS011;52468;40.116;18.296;2023-02-18T07:11:43;127.83;;;60.43;;
51810;SDS011;52468;40.116;18.296;2023-02-18T07:14:10;108.33;;;61.57;;
51810;SDS011;52468;40.116;18.296;2023-02-18T07:16:38;116.70;;;61.00;;
51810;SDS011;52468;40.116;18.296;2023-02-18T07:19:06;116.70;;;60.00;;
51810;SDS011;52468;40.116;18.296;2023-02-18T07:21:34;113.20;;;59.70;;
51810;SDS011;52468;40.116;18.296;2023-02-18T07:24:02;100.10;;;56.60;;
51810;SDS011;52468;40.116;18.296;2023-02-18T07:26:30;91.83;;;52.13;;
51810;SDS011;52468;40.116;18.296;2023-02-18T07:28:58;88.03;;;49.60;;
51810;SDS011;52468;40.116;18.296;2023-02-18T07:31:26;80.17;;;46.23;;
51810;SDS011;52468;40.116;18.296;2023-02-18T07:33:54;80.03;;;45.67;;
51810;SDS011;52468;40.116;18.296;2023-02-18T07:36:21;76.90;;;44.63;;
51810;SDS011;52468;40.116;18.296;2023-02-18T07:38:49;70.37;;;39.13;;
51810;SDS011;52468;40.116;18.296;2023-02-18T07:41:18;65.73;;;41.00;;
51810;SDS011;52468;40.116;18.296;2023-02-18T07:43:48;62.37;;;38.77;;
51810;SDS011;52468;40.116;18.296;2023-02-18T07:46:16;56.43;;;36.70;;
51810;SDS011;52468;40.116;18.296;2023-02-18T07:48:44;56.73;;;35.67;;
51810;SDS011;52468;40.116;18.296;2023-02-18T07:51:12;44.67;;;29.40;;
51810;SDS011;52468;40.116;18.296;2023-02-18T07:53:40;42.83;;;27.27;;
51810;SDS011;52468;40.116;18.296;2023-02-18T07:56:08;39.57;;;27.90;;
51810;SDS011;52468;40.116;18.296;2023-02-18T07:58:37;43.07;;;25.47;;
51810;SDS011;52468;40.116;18.296;2023-02-18T08:01:06;34.33;;;23.80;;
51810;SDS011;52468;40.116;18.296;2023-02-18T08:03:35;37.00;;;23.33;;
51810;SDS011;52468;40.116;18.296;2023-02-18T08:06:04;40.17;;;25.03;;
51810;SDS011;52468;40.116;18.296;2023-02-18T08:08:32;31.83;;;21.70;;
51810;SDS011;52468;40.116;18.296;2023-02-18T08:11:03;35.23;;;22.93;;
51810;SDS011;52468;40.116;18.296;2023-02-18T08:13:45;35.50;;;23.33;;
51810;SDS011;52468;40.116;18.296;2023-02-18T08:16:14;32.47;;;22.87;;
51810;SDS011;52468;40.116;18.296;2023-02-18T08:18:42;30.23;;;22.13;;
51810;SDS011;52468;40.116;18.296;2023-02-18T08:21:10;33.13;;;22.00;;
51810;SDS011;52468;40.116;18.296;2023-02-18T08:23:38;30.07;;;20.93;;
51810;SDS011;52468;40.116;18.296;2023-02-18T08:26:06;28.00;;;21.47;;
51810;SDS011;52468;40.116;18.296;2023-02-18T08:28:41;28.80;;;19.97;;
51810;SDS011;52468;40.116;18.296;2023-02-18T08:31:17;31.43;;;21.20;;
51810;SDS011;52468;40.116;18.296;2023-02-18T08:33:47;31.07;;;20.53;;
51810;SDS011;52468;40.116;18.296;2023-02-18T08:36:15;33.23;;;21.53;;
51810;SDS011;52468;40.116;18.296;2023-02-18T08:38:44;34.70;;;21.40;;
51810;SDS011;52468;40.116;18.296;2023-02-18T08:41:12;32.80;;;22.37;;
51810;SDS011;52468;40.116;18.296;2023-02-18T08:43:41;30.77;;;21.90;;
51810;SDS011;52468;40.116;18.296;2023-02-18T08:46:09;32.50;;;21.30;;
51810;SDS011;52468;40.116;18.296;2023-02-18T08:48:38;29.97;;;19.80;;
51810;SDS011;52468;40.116;18.296;2023-02-18T08:53:47;28.57;;;21.17;;
51810;SDS011;52468;40.116;18.296;2023-02-18T08:56:15;29.23;;;19.77;;
51810;SDS011;52468;40.116;18.296;2023-02-18T08:58:43;33.97;;;22.20;;
51810;SDS011;52468;40.116;18.296;2023-02-18T09:01:11;25.10;;;16.37;;
51810;SDS011;52468;40.116;18.296;2023-02-18T09:03:40;25.20;;;20.10;;
51810;SDS011;52468;40.116;18.296;2023-02-18T09:06:08;24.73;;;18.37;;
51810;SDS011;52468;40.116;18.296;2023-02-18T09:08:37;28.40;;;18.77;;
51810;SDS011;52468;40.116;18.296;2023-02-18T09:11:04;24.70;;;16.80;;
51810;SDS011;52468;40.116;18.296;2023-02-18T09:13:33;25.63;;;15.63;;
51810;SDS011;52468;40.116;18.296;2023-02-18T09:16:02;21.83;;;13.87;;
51810;SDS011;52468;40.116;18.296;2023-02-18T09:18:33;16.63;;;13.50;;
51810;SDS011;52468;40.116;18.296;2023-02-18T09:21:02;16.70;;;12.63;;
51810;SDS011;52468;40.116;18.296;2023-02-18T09:23:32;19.83;;;14.10;;
51810;SDS011;52468;40.116;18.296;2023-02-18T09:26:03;17.20;;;12.23;;
51810;SDS011;52468;40.116;18.296;2023-02-18T09:28:32;18.43;;;12.23;;
51810;SDS011;52468;40.116;18.296;2023-02-18T09:31:07;16.57;;;12.20;;
51810;SDS011;52468;40.116;18.296;2023-02-18T09:33:39;18.83;;;11.87;;
51810;SDS011;52468;40.116;18.296;2023-02-18T09:36:09;17.83;;;11.97;;
51810;SDS011;52468;40.116;18.296;2023-02-18T09:38:37;14.40;;;11.53;;
51810;SDS011;52468;40.116;18.296;2023-02-18T09:41:06;18.50;;;12.13;;
51810;SDS011;52468;40.116;18.296;2023-02-18T09:43:41;16.20;;;11.70;;
51810;SDS011;52468;40.116;18.296;2023-02-18T09:46:17;16.90;;;11.90;;
51810;SDS011;52468;40.116;18.296;2023-02-18T09:48:57;16.73;;;12.20;;
51810;SDS011;52468;40.116;18.296;2023-02-18T09:51:33;15.67;;;12.23;;
51810;SDS011;52468;40.116;18.296;2023-02-18T09:54:01;13.90;;;11.30;;
51810;SDS011;52468;40.116;18.296;2023-02-18T09:56:30;16.77;;;11.40;;
51810;SDS011;52468;40.116;18.296;2023-02-18T09:59:02;15.68;;;11.30;;
51810;SDS011;52468;40.116;18.296;2023-02-18T10:01:36;16.80;;;11.87;;
51810;SDS011;52468;40.116;18.296;2023-02-18T10:04:12;16.20;;;11.97;;
51810;SDS011;52468;40.116;18.296;2023-02-18T10:06:47;17.17;;;11.57;;
51810;SDS011;52468;40.116;18.296;2023-02-18T10:09:20;15.90;;;12.13;;
51810;SDS011;52468;40.116;18.296;2023-02-18T10:12:13;15.97;;;12.23;;
51810;SDS011;52468;40.116;18.296;2023-02-18T10:14:50;14.50;;;10.53;;
51810;SDS011;52468;40.116;18.296;2023-02-18T10:17:23;18.17;;;10.50;;
51810;SDS011;52468;40.116;18.296;2023-02-18T10:19:53;15.77;;;10.67;;
51810;SDS011;52468;40.116;18.296;2023-02-18T10:22:23;12.77;;;10.50;;
51810;SDS011;52468;40.116;18.296;2023-02-18T10:24:54;15.43;;;11.30;;
51810;SDS011;52468;40.116;18.296;2023-02-18T10:27:29;15.50;;;10.15;;
51810;SDS011;52468;40.116;18.296;2023-02-18T10:30:02;17.70;;;11.37;;
51810;SDS011;52468;40.116;18.296;2023-02-18T10:32:51;18.63;;;11.50;;
51810;SDS011;52468;40.116;18.296;2023-02-18T10:35:23;15.70;;;10.53;;
51810;SDS011;52468;40.116;18.296;2023-02-18T10:46:25;13.47;;;9.13;;
51810;SDS011;52468;40.116;18.296;2023-02-18T10:52:02;14.73;;;9.50;;
51810;SDS011;52468;40.116;18.296;2023-02-18T10:54:49;15.33;;;11.07;;
51810;SDS011;52468;40.116;18.296;2023-02-18T10:57:18;11.50;;;8.23;;
51810;SDS011;52468;40.116;18.296;2023-02-18T11:00:14;10.27;;;7.87;;
51810;SDS011;52468;40.116;18.296;2023-02-18T11:02:45;11.73;;;9.03;;
51810;SDS011;52468;40.116;18.296;2023-02-18T11:05:26;16.33;;;9.90;;
51810;SDS011;52468;40.116;18.296;2023-02-18T11:07:55;14.20;;;11.57;;
51810;SDS011;52468;40.116;18.296;2023-02-18T11:10:25;15.33;;;10.30;;
51810;SDS011;52468;40.116;18.296;2023-02-18T11:15:27;15.03;;;10.60;;
51810;SDS011;52468;40.116;18.296;2023-02-18T11:17:56;13.83;;;10.00;;
51810;SDS011;52468;40.116;18.296;2023-02-18T11:20:37;15.57;;;10.67;;
51810;SDS011;52468;40.116;18.296;2023-02-18T11:25:34;11.77;;;9.27;;
51810;SDS011;52468;40.116;18.296;2023-02-18T11:28:04;16.07;;;9.73;;
51810;SDS011;52468;40.116;18.296;2023-02-18T11:30:52;13.27;;;9.53;;
51810;SDS011;52468;40.116;18.296;2023-02-18T11:36:02;13.10;;;10.07;;
51810;SDS011;52468;40.116;18.296;2023-02-18T11:38:59;15.90;;;10.13;;
51810;SDS011;52468;40.116;18.296;2023-02-18T11:41:37;13.48;;;9.95;;
51810;SDS011;52468;40.116;18.296;2023-02-18T11:44:19;13.83;;;9.37;;
51810;SDS011;52468;40.116;18.296;2023-02-18T11:47:16;15.37;;;10.00;;
51810;SDS011;52468;40.116;18.296;2023-02-18T11:50:02;14.23;;;10.20;;
51810;SDS011;52468;40.116;18.296;2023-02-18T11:52:42;14.60;;;9.65;;
51810;SDS011;52468;40.116;18.296;2023-02-18T11:55:21;12.70;;;8.73;;
51810;SDS011;52468;40.116;18.296;2023-02-18T11:58:01;12.00;;;8.13;;
51810;SDS011;52468;40.116;18.296;2023-02-18T12:03:32;10.70;;;8.07;;
51810;SDS011;52468;40.116;18.296;2023-02-18T12:06:01;11.67;;;8.13;;
51810;SDS011;52468;40.116;18.296;2023-02-18T12:08:38;10.30;;;7.93;;
51810;SDS011;52468;40.116;18.296;2023-02-18T12:11:36;11.27;;;8.23;;
51810;SDS011;52468;40.116;18.296;2023-02-18T12:14:17;11.30;;;8.50;;
51810;SDS011;52468;40.116;18.296;2023-02-18T12:19:49;12.03;;;8.53;;
51810;SDS011;52468;40.116;18.296;2023-02-18T12:35:49;14.50;;;9.17;;
51810;SDS011;52468;40.116;18.296;2023-02-18T12:41:28;13.67;;;9.33;;
51810;SDS011;52468;40.116;18.296;2023-02-18T13:06:15;13.17;;;8.93;;
51810;SDS011;52468;40.116;18.296;2023-02-18T13:14:52;12.13;;;9.23;;
51810;SDS011;52468;40.116;18.296;2023-02-18T13:17:26;14.23;;;9.57;;
51810;SDS011;52468;40.116;18.296;2023-02-18T13:20:00;13.43;;;9.37;;
51810;SDS011;52468;40.116;18.296;2023-02-18T13:22:31;12.68;;;9.60;;
51810;SDS011;52468;40.116;18.296;2023-02-18T13:24:59;13.70;;;9.87;;
51810;SDS011;52468;40.116;18.296;2023-02-18T13:30:30;14.87;;;10.27;;
51810;SDS011;52468;40.116;18.296;2023-02-18T13:33:29;11.33;;;8.67;;
51810;SDS011;52468;40.116;18.296;2023-02-18T13:36:35;12.20;;;9.07;;
51810;SDS011;52468;40.116;18.296;2023-02-18T13:39:17;13.63;;;8.20;;
51810;SDS011;52468;40.116;18.296;2023-02-18T13:41:48;16.77;;;9.27;;
51810;SDS011;52468;40.116;18.296;2023-02-18T13:46:49;11.83;;;9.83;;
51810;SDS011;52468;40.116;18.296;2023-02-18T13:49:23;12.93;;;9.97;;
51810;SDS011;52468;40.116;18.296;2023-02-18T13:52:02;18.03;;;10.90;;
51810;SDS011;52468;40.116;18.296;2023-02-18T13:54:31;12.43;;;10.17;;
51810;SDS011;52468;40.116;18.296;2023-02-18T13:57:16;17.37;;;10.07;;
51810;SDS011;52468;40.116;18.296;2023-02-18T13:59:48;11.93;;;9.43;;
51810;SDS011;52468;40.116;18.296;2023-02-18T14:04:54;11.27;;;8.90;;
51810;SDS011;52468;40.116;18.296;2023-02-18T14:22:47;13.63;;;9.50;;
51810;SDS011;52468;40.116;18.296;2023-02-18T14:27:51;16.73;;;12.60;;
51810;SDS011;52468;40.116;18.296;2023-02-18T14:30:28;12.23;;;9.93;;
51810;SDS011;52468;40.116;18.296;2023-02-18T14:33:04;9.30;;;8.23;;
51810;SDS011;52468;40.116;18.296;2023-02-18T14:35:39;11.60;;;8.90;;
51810;SDS011;52468;40.116;18.296;2023-02-18T14:38:32;14.07;;;8.87;;
51810;SDS011;52468;40.116;18.296;2023-02-18T14:41:21;10.20;;;7.70;;
51810;SDS011;52468;40.116;18.296;2023-02-18T14:46:27;9.80;;;6.97;;
51810;SDS011;52468;40.116;18.296;2023-02-18T14:52:10;11.77;;;7.77;;
51810;SDS011;52468;40.116;18.296;2023-02-18T14:54:59;10.77;;;8.03;;
51810;SDS011;52468;40.116;18.296;2023-02-18T14:59:58;8.13;;;6.90;;
51810;SDS011;52468;40.116;18.296;2023-02-18T15:02:26;10.03;;;7.03;;
51810;SDS011;52468;40.116;18.296;2023-02-18T15:05:16;11.97;;;8.10;;
51810;SDS011;52468;40.116;18.296;2023-02-18T15:07:55;9.23;;;7.23;;
51810;SDS011;52468;40.116;18.296;2023-02-18T15:10:34;10.43;;;8.10;;
51810;SDS011;52468;40.116;18.296;2023-02-18T15:13:19;10.33;;;7.33;;
51810;SDS011;52468;40.116;18.296;2023-02-18T15:15:50;12.88;;;8.70;;
51810;SDS011;52468;40.116;18.296;2023-02-18T15:18:26;15.83;;;9.10;;
51810;SDS011;52468;40.116;18.296;2023-02-18T15:21:01;10.03;;;8.33;;
51810;SDS011;52468;40.116;18.296;2023-02-18T15:23:34;10.93;;;8.65;;
51810;SDS011;52468;40.116;18.296;2023-02-18T15:26:05;11.43;;;9.17;;
51810;SDS011;52468;40.116;18.296;2023-02-18T15:28:38;12.70;;;9.87;;
51810;SDS011;52468;40.116;18.296;2023-02-18T15:31:18;15.00;;;9.17;;
51810;SDS011;52468;40.116;18.296;2023-02-18T15:33:51;12.90;;;9.57;;
51810;SDS011;52468;40.116;18.296;2023-02-18T15:36:19;15.17;;;10.70;;
51810;SDS011;52468;40.116;18.296;2023-02-18T15:38:47;17.10;;;10.63;;
51810;SDS011;52468;40.116;18.296;2023-02-18T15:41:15;15.93;;;12.93;;
51810;SDS011;52468;40.116;18.296;2023-02-18T15:43:55;12.50;;;9.87;;
51810;SDS011;52468;40.116;18.296;2023-02-18T15:46:28;16.00;;;10.38;;
51810;SDS011;52468;40.116;18.296;2023-02-18T15:48:57;36.80;;;24.07;;
51810;SDS011;52468;40.116;18.296;2023-02-18T15:51:27;21.00;;;14.17;;
51810;SDS011;52468;40.116;18.296;2023-02-18T15:53:58;17.07;;;12.00;;
51810;SDS011;52468;40.116;18.296;2023-02-18T15:59:20;12.07;;;9.00;;
51810;SDS011;52468;40.116;18.296;2023-02-18T16:01:52;19.57;;;15.43;;
51810;SDS011;52468;40.116;18.296;2023-02-18T16:04:31;19.00;;;15.57;;
51810;SDS011;52468;40.116;18.296;2023-02-18T16:07:19;17.93;;;13.47;;
51810;SDS011;52468;40.116;18.296;2023-02-18T16:10:07;23.70;;;16.80;;
51810;SDS011;52468;40.116;18.296;2023-02-18T16:12:40;19.73;;;12.57;;
51810;SDS011;52468;40.116;18.296;2023-02-18T16:15:24;17.63;;;12.93;;
51810;SDS011;52468;40.116;18.296;2023-02-18T16:17:55;28.27;;;21.03;;
51810;SDS011;52468;40.116;18.296;2023-02-18T16:22:58;28.73;;;19.57;;
51810;SDS011;52468;40.116;18.296;2023-02-18T16:25:42;26.85;;;20.40;;
51810;SDS011;52468;40.116;18.296;2023-02-18T16:30:40;52.17;;;35.53;;
51810;SDS011;52468;40.116;18.296;2023-02-18T16:33:11;205.33;;;143.47;;
51810;SDS011;52468;40.116;18.296;2023-02-18T16:35:39;73.57;;;51.97;;
51810;SDS011;52468;40.116;18.296;2023-02-18T16:38:17;51.40;;;37.07;;
51810;SDS011;52468;40.116;18.296;2023-02-18T16:40:51;34.57;;;25.03;;
51810;SDS011;52468;40.116;18.296;2023-02-18T16:43:21;24.53;;;17.07;;
51810;SDS011;52468;40.116;18.296;2023-02-18T16:45:56;31.77;;;23.87;;
51810;SDS011;52468;40.116;18.296;2023-02-18T16:48:29;22.60;;;14.82;;
51810;SDS011;52468;40.116;18.296;2023-02-18T16:51:04;17.53;;;13.13;;
51810;SDS011;52468;40.116;18.296;2023-02-18T16:53:44;22.17;;;13.70;;
51810;SDS011;52468;40.116;18.296;2023-02-18T16:56:17;19.40;;;12.67;;
51810;SDS011;52468;40.116;18.296;2023-02-18T16:58:47;23.03;;;15.53;;
51810;SDS011;52468;40.116;18.296;2023-02-18T17:01:20;23.87;;;16.50;;
51810;SDS011;52468;40.116;18.296;2023-02-18T17:03:51;27.07;;;18.60;;
51810;SDS011;52468;40.116;18.296;2023-02-18T17:06:19;53.23;;;32.80;;
51810;SDS011;52468;40.116;18.296;2023-02-18T17:08:47;32.57;;;21.90;;
51810;SDS011;52468;40.116;18.296;2023-02-18T17:11:23;29.33;;;19.17;;
51810;SDS011;52468;40.116;18.296;2023-02-18T17:13:56;25.10;;;16.37;;